Terminal Aerodrome Forecast
Issued by NWS Louisville, KY

Home | Current Version | Previous Version | Text Only | Print | Product List | Glossary On
Versions: 1 2 3 4 5 6 7 8 9 10 11 12 13 14 15 16 17 18 19 20
000
FTUS43 KLMK 180921 AAA
TAFBWG
TAF AMD
KBWG 180921Z 1809/1906 19016G26KT P6SM BKN050 WS015/19045KT
     FM181330 20020G30KT P6SM OVC017
     FM181800 21022G32KT P6SM VCSH OVC015
     FM182000 21023G33KT 6SM -SHRA VCTS OVC013CB
     FM182200 29024G34KT P6SM VCSH OVC016
     FM190200 30015G25KT P6SM OVC023=

USA.gov is the U.S. government's official web portal to all federal, state and local government web resources and services.